Eustis, Maine
Current Conditions -  °F | °C
As of 11:52 AM on Friday 28 Nov 2014 (Local Time) from KBML Reporting Station
Light Snow Light Snow  
Wind Chill: 17°   Ceiling: 4300
Heat Index: 25°   Visibility: 4mi
Dew Point: 18°   Wind: 7mph
Humidity: 75%   Direction: NA
Pressure: 29.98"   Gusts: NA
Location:  45.22°N, 70.48°W
Report Text: KBML 281652Z AUTO VRB06KT 4SM -SN FEW028 OVC043 M04/M08 A2998 RMK AO2 SNB1553 SLP171 P0000 T10391078
Loading
Personal Weather Stations






























Interactive Weather Map New forecast layout! Learn more

10-Day Weather Forecast

Advertisements
Track Severe Weather on mobile